Time;durP1;ratioP1;P1;durP2;ratioP2;P2;SDS_P1;SDS_P2;PMS_P1;PMS_P2;Temp;Humidity;BMP_temperature;BMP_pressure;BME280_temperature;BME280_humidity;BME280_pressure;Samples;Min_cycle;Max_cycle;Signal;HPM_P1;HPM_P2
2021/01/28 00:01:08;;;;;;;;;;;;;;;21.85;20.54;96878.19;4961766;29;1582;-74
2021/01/28 00:03:34;;;;;;;;;;;;;;;22.28;19.96;96890.44;4961718;29;973;-74
2021/01/28 00:05:59;;;;;;;;;;;;;;;22.08;20.30;96878.78;4961806;29;919;-74
2021/01/28 00:08:25;;;;;;;;;;;;;;;21.81;20.61;96885.25;4945001;29;1964;-74
2021/01/28 00:10:50;;;;;;;;;;;;;;;21.77;20.33;96893.94;4962215;29;711;-74
2021/01/28 00:13:16;;;;;;;;;;;;;;;21.37;21.04;96882.75;4945117;29;1548;-74
2021/01/28 00:15:41;;;;;;;;;;;;;;;21.47;20.70;96889.22;4960836;28;1559;-73
2021/01/28 00:18:08;;;;;;;;;;;;;;;21.55;20.57;96890.47;4961593;29;1048;-74
2021/01/28 00:20:35;;;;;;;;;;;;;;;21.88;20.52;96895.50;4961564;29;952;-74
2021/01/28 00:23:00;;;;;;;;;;;;;;;21.59;20.52;96896.75;4961698;29;914;-74
2021/01/28 00:25:25;;;;;;;;;;;;;;;21.33;20.98;96901.94;4961483;29;1536;-74
2021/01/28 00:27:51;;;;;;;;;;;;;;;21.09;21.26;96904.56;4961578;29;1979;-74
2021/01/28 00:30:21;;;;;;;;;;;;;;;21.71;20.65;96909.19;4961733;29;599;-74
2021/01/28 00:32:47;;;;;;;;;;;;;;;21.63;20.38;96920.03;4961465;29;951;-74
2021/01/28 00:35:14;;;;;;;;;;;;;;;21.46;20.78;96915.97;4961350;29;890;-74
2021/01/28 00:37:39;;;;;;;;;;;;;;;21.33;20.95;96925.34;4961675;29;882;-74
2021/01/28 00:40:05;;;;;;;;;;;;;;;21.57;20.95;96922.72;4961402;29;1586;-75
2021/01/28 00:42:31;;;;;;;;;;;;;;;21.35;21.15;96924.91;4961506;29;616;-74
2021/01/28 00:44:57;;;;;;;;;;;;;;;21.59;20.82;96920.19;4945283;29;1340;-74
2021/01/28 00:47:24;;;;;;;;;;;;;;;21.54;21.01;96929.31;4961271;29;1911;-74
2021/01/28 00:49:49;;;;;;;;;;;;;;;21.79;20.67;96939.53;4961520;29;902;-74
2021/01/28 00:52:14;;;;;;;;;;;;;;;21.58;20.98;96934.81;4960928;29;1572;-74
2021/01/28 00:54:40;;;;;;;;;;;;;;;21.75;20.92;96933.25;4961623;29;623;-74
2021/01/28 00:57:05;;;;;;;;;;;;;;;21.61;20.87;96933.91;4961512;29;635;-74
2021/01/28 00:59:31;;;;;;;;;;;;;;;21.79;20.89;96936.72;4945022;29;1239;-74
2021/01/28 01:01:57;;;;;;;;;;;;;;;22.04;20.42;96934.81;4944830;29;1216;-74
2021/01/28 01:04:22;;;;;;;;;;;;;;;22.14;20.33;96942.06;4960768;29;1594;-74
2021/01/28 01:06:48;;;;;;;;;;;;;;;21.91;20.56;96945.50;4961135;29;1558;-73
2021/01/28 01:09:14;;;;;;;;;;;;;;;22.25;20.44;96959.38;4944896;29;1926;-74
2021/01/28 01:11:48;;;;;;;;;;;;;;;22.27;20.34;96948.34;4944997;29;1197;-74
2021/01/28 01:14:14;;;;;;;;;;;;;;;21.75;21.09;96955.13;4961308;29;656;-74
2021/01/28 01:16:39;;;;;;;;;;;;;;;22.21;20.52;96958.75;4960611;29;1481;-74
2021/01/28 01:19:15;;;;;;;;;;;;;;;22.05;20.46;96956.22;4944474;29;955;-74
2021/01/28 01:21:54;;;;;;;;;;;;;;;21.92;20.92;96947.13;4944823;29;1324;-74
2021/01/28 01:24:24;;;;;;;;;;;;;;;21.30;21.82;96960.25;4961189;29;615;-74
2021/01/28 01:26:50;;;;;;;;;;;;;;;21.84;21.01;96953.06;4962718;28;1594;-74
2021/01/28 01:29:15;;;;;;;;;;;;;;;21.52;21.34;96950.88;4948161;29;1914;-74
2021/01/28 01:32:10;;;;;;;;;;;;;;;21.25;21.48;96960.84;4951733;29;976;-74
2021/01/28 01:34:55;;;;;;;;;;;;;;;20.60;22.42;96953.38;4947799;29;1053;-74
2021/01/28 01:37:21;;;;;;;;;;;;;;;21.01;22.15;96965.47;4948186;29;1254;-73
2021/01/28 01:39:50;;;;;;;;;;;;;;;21.14;21.98;96963.34;4947817;29;1525;-74
2021/01/28 01:42:16;;;;;;;;;;;;;;;21.49;21.32;96951.78;4964703;29;667;-74
2021/01/28 01:44:43;;;;;;;;;;;;;;;21.47;21.42;96957.16;4948043;29;1172;-74
2021/01/28 01:47:36;;;;;;;;;;;;;;;21.47;21.30;96960.75;4933851;29;1894;-74
2021/01/28 01:50:07;;;;;;;;;;;;;;;21.46;21.55;96964.84;4931625;29;1533;-74
2021/01/28 01:52:32;;;;;;;;;;;;;;;21.39;21.44;96967.97;4947525;29;1260;-74
2021/01/28 01:54:59;;;;;;;;;;;;;;;21.61;20.96;96959.38;4947853;29;1215;-74
2021/01/28 01:57:34;;;;;;;;;;;;;;;21.76;21.17;96968.81;4947205;29;840;-74
2021/01/28 02:00:13;;;;;;;;;;;;;;;21.66;20.97;96970.06;4929787;29;1513;-74
2021/01/28 02:02:45;;;;;;;;;;;;;;;21.99;20.68;96963.78;4944749;29;841;-74
2021/01/28 02:05:29;;;;;;;;;;;;;;;21.85;20.88;96970.84;4944623;29;903;-74
2021/01/28 02:08:13;;;;;;;;;;;;;;;21.64;21.11;96974.63;4944901;29;1899;-74
2021/01/28 02:10:58;;;;;;;;;;;;;;;21.78;20.99;96976.84;4947942;29;1543;-74
2021/01/28 02:13:35;;;;;;;;;;;;;;;21.54;21.07;96973.81;4947259;29;1073;-74
2021/01/28 02:16:31;;;;;;;;;;;;;;;21.77;20.69;96976.06;4964111;29;603;-74
2021/01/28 02:19:38;;;;;;;;;;;;;;;21.89;20.72;96970.69;4933307;29;1309;-74
2021/01/28 02:22:03;;;;;;;;;;;;;;;21.69;21.00;96977.59;4955759;29;1057;-74
2021/01/28 02:24:43;;;;;;;;;;;;;;;21.92;20.78;96969.78;4931248;29;1537;-73
2021/01/28 02:27:08;;;;;;;;;;;;;;;21.92;20.78;96976.22;4931420;29;1918;-74
2021/01/28 02:30:06;;;;;;;;;;;;;;;21.76;21.01;96980.16;4930342;29;1064;-74
2021/01/28 02:32:32;;;;;;;;;;;;;;;21.92;20.76;96978.25;4963781;29;659;-73
2021/01/28 02:35:19;;;;;;;;;;;;;;;21.69;20.66;96971.94;4962791;29;940;-74
2021/01/28 02:37:45;;;;;;;;;;;;;;;21.63;20.81;96971.00;4945580;29;1615;-74
2021/01/28 02:40:20;;;;;;;;;;;;;;;21.89;20.73;96970.69;4947199;29;1090;-74
2021/01/28 02:43:23;;;;;;;;;;;;;;;21.88;20.70;96969.13;4886342;29;1105;-74
2021/01/28 02:46:12;;;;;;;;;;;;;;;21.68;20.79;96973.22;4870671;29;1263;-74
2021/01/28 02:48:51;;;;;;;;;;;;;;;21.77;20.56;96984.53;4924912;29;1986;-74
2021/01/28 02:51:29;;;;;;;;;;;;;;;21.53;21.04;96983.56;4946541;29;1301;-74
2021/01/28 02:53:57;;;;;;;;;;;;;;;21.56;20.93;96985.47;4946083;29;1247;-74
2021/01/28 02:56:23;;;;;;;;;;;;;;;21.71;20.76;96986.44;4946601;29;1226;-74
2021/01/28 02:58:53;;;;;;;;;;;;;;;21.69;20.82;96980.44;4946454;29;1010;-74
2021/01/28 03:01:20;;;;;;;;;;;;;;;21.81;20.68;96979.53;4946448;29;1517;-74
2021/01/28 03:03:48;;;;;;;;;;;;;;;21.72;20.67;96988.00;4931202;29;1259;-74
2021/01/28 03:06:15;;;;;;;;;;;;;;;21.77;20.58;96975.25;4930877;29;1337;-74
2021/01/28 03:08:50;;;;;;;;;;;;;;;21.64;20.78;96989.56;4946181;29;1980;-74
2021/01/28 03:11:40;;;;;;;;;;;;;;;21.80;20.30;96983.59;4946184;29;1033;-73
2021/01/28 03:14:10;;;;;;;;;;;;;;;21.68;20.79;96983.75;4945839;29;1607;-74
2021/01/28 03:16:39;;;;;;;;;;;;;;;21.51;20.57;96992.53;4946779;29;1335;-74
2021/01/28 03:19:18;;;;;;;;;;;;;;;21.64;20.57;96994.44;4962838;29;687;-74
2021/01/28 03:21:43;;;;;;;;;;;;;;;21.57;20.63;96996.31;4946056;29;1109;-74
2021/01/28 03:24:26;;;;;;;;;;;;;;;21.95;19.91;96997.13;4946001;29;1152;-74
2021/01/28 03:27:00;;;;;;;;;;;;;;;21.72;20.25;96998.53;4946304;29;1409;-74
2021/01/28 03:29:25;;;;;;;;;;;;;;;21.82;20.42;96992.41;4962513;29;1915;-74
2021/01/28 03:31:51;;;;;;;;;;;;;;;21.81;20.21;96993.69;4945811;29;1273;-74
2021/01/28 03:34:19;;;;;;;;;;;;;;;21.72;20.55;96993.66;4962846;29;711;-74
2021/01/28 03:36:45;;;;;;;;;;;;;;;21.60;20.44;97003.06;4945926;29;1250;-74
2021/01/28 03:39:15;;;;;;;;;;;;;;;21.69;20.37;97007.97;4961541;29;1488;-74
2021/01/28 03:41:41;;;;;;;;;;;;;;;21.74;20.54;97015.84;4962287;29;904;-74
2021/01/28 03:44:06;;;;;;;;;;;;;;;21.80;20.39;96997.75;4946200;29;1149;-73
2021/01/28 03:46:32;;;;;;;;;;;;;;;21.89;20.12;97004.69;4945882;29;1390;-74
2021/01/28 03:48:58;;;;;;;;;;;;;;;21.61;20.55;97018.81;4945656;29;1907;-74
2021/01/28 03:51:36;;;;;;;;;;;;;;;21.63;20.54;97012.69;4945251;29;1525;-74
2021/01/28 03:54:20;;;;;;;;;;;;;;;21.64;20.44;97020.69;4961836;29;1060;-74
2021/01/28 03:56:52;;;;;;;;;;;;;;;21.87;20.29;97012.88;4962100;29;695;-75
2021/01/28 03:59:18;;;;;;;;;;;;;;;21.82;20.30;97015.06;4945710;29;1129;-74
2021/01/28 04:02:06;;;;;;;;;;;;;;;21.73;20.22;97017.09;4954387;29;1163;-74
2021/01/28 04:04:58;;;;;;;;;;;;;;;21.62;20.39;97020.38;4939781;29;1133;-74
2021/01/28 04:07:44;;;;;;;;;;;;;;;21.65;20.47;97019.44;4932137;29;1972;-74
2021/01/28 04:10:12;;;;;;;;;;;;;;;21.77;20.31;97021.34;4944836;29;1300;-74
2021/01/28 04:12:42;;;;;;;;;;;;;;;21.83;20.15;97013.81;4945159;29;1487;-74
2021/01/28 04:15:23;;;;;;;;;;;;;;;21.74;20.34;97021.50;4945198;29;1540;-74
2021/01/28 04:17:50;;;;;;;;;;;;;;;21.68;20.15;97018.50;4945385;29;1169;-74
2021/01/28 04:20:23;;;;;;;;;;;;;;;21.76;20.41;97013.31;4945496;29;1183;-74
2021/01/28 04:22:49;;;;;;;;;;;;;;;21.72;20.01;97021.97;4945367;29;1169;-74
2021/01/28 04:25:15;;;;;;;;;;;;;;;21.83;19.98;97030.00;4945031;29;1260;-74
2021/01/28 04:27:43;;;;;;;;;;;;;;;21.66;20.26;97023.84;4944841;29;1981;-74
2021/01/28 04:30:23;;;;;;;;;;;;;;;21.63;20.33;97030.44;4945238;29;1193;-74
2021/01/28 04:32:54;;;;;;;;;;;;;;;21.60;20.21;97031.38;4945834;29;659;-74
2021/01/28 04:35:48;;;;;;;;;;;;;;;21.38;20.46;97033.53;4961298;29;1173;-74
2021/01/28 04:38:14;;;;;;;;;;;;;;;21.50;20.34;97046.75;4944511;29;1281;-74
2021/01/28 04:40:48;;;;;;;;;;;;;;;21.70;19.98;97032.97;4944328;29;1509;-73
2021/01/28 04:43:18;;;;;;;;;;;;;;;21.70;19.91;97038.63;4929350;29;1602;-74
2021/01/28 04:45:48;;;;;;;;;;;;;;;21.84;20.06;97038.03;4944986;29;1178;-74
2021/01/28 04:48:13;;;;;;;;;;;;;;;21.77;19.94;97038.34;4961839;29;1902;-74
2021/01/28 04:51:10;;;;;;;;;;;;;;;21.82;20.08;97039.78;4933245;29;1214;-74
2021/01/28 04:53:42;;;;;;;;;;;;;;;21.83;19.92;97047.78;4944282;29;1104;-74
2021/01/28 04:56:14;;;;;;;;;;;;;;;21.75;20.08;97046.50;4929724;29;1261;-73
2021/01/28 04:58:57;;;;;;;;;;;;;;;21.61;19.92;97052.78;4944648;29;1073;-73
2021/01/28 05:01:27;;;;;;;;;;;;;;;21.59;20.11;97056.06;4930171;29;1372;-73
2021/01/28 05:04:15;;;;;;;;;;;;;;;21.72;19.88;97058.00;4965221;29;531;-74
2021/01/28 05:07:03;;;;;;;;;;;;;;;21.43;20.18;97064.03;4935854;29;1209;-74
2021/01/28 05:10:14;;;;;;;;;;;;;;;21.57;20.25;97069.91;4951531;29;967;-74
2021/01/28 05:13:24;;;;;;;;;;;;;;;21.70;20.06;97071.81;4953476;29;927;-74
2021/01/28 05:16:28;;;;;;;;;;;;;;;21.52;20.25;97072.56;4964845;29;958;-73
2021/01/28 05:19:34;;;;;;;;;;;;;;;21.46;20.29;97068.78;4925332;29;1067;-73
2021/01/28 05:22:12;;;;;;;;;;;;;;;21.68;19.80;97077.97;4909205;29;1367;-74
2021/01/28 05:25:14;;;;;;;;;;;;;;;21.57;20.22;97081.22;4952292;29;1051;-74
2021/01/28 05:27:53;;;;;;;;;;;;;;;21.98;19.63;97081.16;4948209;29;1906;-74
2021/01/28 05:30:37;;;;;;;;;;;;;;;21.72;19.98;97086.31;4948298;29;1328;-74
2021/01/28 05:33:03;;;;;;;;;;;;;;;21.17;20.60;97086.84;4964351;29;1108;-74
2021/01/28 05:35:29;;;;;;;;;;;;;;;21.07;20.89;97086.00;4964552;29;1164;-74
2021/01/28 05:38:24;;;;;;;;;;;;;;;21.31;20.43;97092.00;4946071;29;1208;-74
2021/01/28 05:41:10;;;;;;;;;;;;;;;21.49;20.18;97085.59;4933290;29;1550;-74
2021/01/28 05:43:43;;;;;;;;;;;;;;;21.47;20.44;97084.50;4946012;29;1050;-74
2021/01/28 05:46:17;;;;;;;;;;;;;;;21.44;20.32;97091.88;4947635;29;1306;-74
2021/01/28 05:49:03;;;;;;;;;;;;;;;21.56;20.27;97093.81;4931203;29;1903;-74
2021/01/28 05:51:47;;;;;;;;;;;;;;;21.63;20.33;97106.09;4963158;29;1093;-74
2021/01/28 05:54:22;;;;;;;;;;;;;;;21.64;20.11;97097.13;4929385;29;1062;-73
2021/01/28 05:57:12;;;;;;;;;;;;;;;21.57;20.43;97103.09;4963309;29;1018;-74
2021/01/28 05:59:50;;;;;;;;;;;;;;;21.56;20.50;97098.69;4930950;29;1138;-73
2021/01/28 06:02:30;;;;;;;;;;;;;;;21.53;20.61;97096.78;4944420;29;1301;-74
2021/01/28 06:05:33;;;;;;;;;;;;;;;21.57;20.32;97097.44;4949367;29;999;-73
2021/01/28 06:08:25;;;;;;;;;;;;;;;21.86;20.07;97108.34;4945004;29;1906;-74
2021/01/28 06:11:07;;;;;;;;;;;;;;;21.81;20.28;97106.13;4932198;29;1142;-74
2021/01/28 06:13:41;;;;;;;;;;;;;;;21.29;20.63;97102.94;4945656;29;1129;-73
2021/01/28 06:16:26;;;;;;;;;;;;;;;20.85;20.96;97115.59;4962888;29;1117;-74
2021/01/28 06:19:01;;;;;;;;;;;;;;;21.30;20.67;97101.72;4947043;29;1243;-73
2021/01/28 06:21:57;;;;;;;;;;;;;;;21.47;20.44;97109.97;4945930;29;1202;-74
2021/01/28 06:24:53;;;;;;;;;;;;;;;21.45;20.60;97112.47;4962203;29;999;-74
2021/01/28 06:27:32;;;;;;;;;;;;;;;21.60;20.46;97119.13;4929426;29;1896;-74
2021/01/28 06:30:14;;;;;;;;;;;;;;;21.71;20.18;97113.84;4945236;29;1183;-74
2021/01/28 06:32:59;;;;;;;;;;;;;;;21.47;20.68;97112.81;4945582;29;1365;-74
2021/01/28 06:36:02;;;;;;;;;;;;;;;21.42;20.91;97119.06;4963712;29;586;-73
2021/01/28 06:38:39;;;;;;;;;;;;;;;21.58;20.66;97107.50;4963784;29;585;-74
2021/01/28 06:41:41;;;;;;;;;;;;;;;21.64;20.67;97111.28;4951196;29;1105;-74
2021/01/28 06:44:29;;;;;;;;;;;;;;;21.88;20.27;97117.19;4932598;29;1302;-74
2021/01/28 06:47:28;;;;;;;;;;;;;;;21.74;20.57;97118.56;4866880;29;1899;-74
2021/01/28 06:50:22;;;;;;;;;;;;;;;21.56;20.54;97118.50;4946468;29;1119;-73
2021/01/28 06:53:10;;;;;;;;;;;;;;;21.76;20.25;97115.25;4931104;29;1225;-74
2021/01/28 06:56:00;;;;;;;;;;;;;;;21.74;20.28;97112.88;4914464;29;1068;-74
2021/01/28 06:59:17;;;;;;;;;;;;;;;21.84;20.39;97111.66;4856154;29;1213;-74
2021/01/28 07:02:11;;;;;;;;;;;;;;;21.97;20.21;97119.25;4928629;29;1168;-74
2021/01/28 07:05:07;;;;;;;;;;;;;;;21.60;20.45;97124.78;4932059;29;1117;-74
2021/01/28 07:07:37;;;;;;;;;;;;;;;21.16;20.98;97124.88;4946379;29;1970;-74
2021/01/28 07:10:38;;;;;;;;;;;;;;;21.46;20.84;97131.03;4883541;29;998;-74
2021/01/28 07:13:29;;;;;;;;;;;;;;;21.45;20.71;97135.09;4926686;29;1071;-73
2021/01/28 07:16:17;;;;;;;;;;;;;;;21.56;20.52;97143.97;4933183;29;1201;-74
2021/01/28 07:18:44;;;;;;;;;;;;;;;21.41;20.73;97159.94;4945972;29;994;-73
2021/01/28 07:21:28;;;;;;;;;;;;;;;21.45;20.58;97158.56;4962736;29;683;-74
2021/01/28 07:23:58;;;;;;;;;;;;;;;21.42;20.75;97162.31;4945555;29;1313;-73
2021/01/28 07:26:24;;;;;;;;;;;;;;;21.53;20.43;97154.19;4946147;29;628;-74
2021/01/28 07:28:49;;;;;;;;;;;;;;;21.63;20.50;97157.06;4945930;29;1970;-74
2021/01/28 07:31:19;;;;;;;;;;;;;;;21.64;20.64;97165.06;4962199;29;933;-74
2021/01/28 07:33:50;;;;;;;;;;;;;;;21.72;20.28;97160.72;4962260;29;916;-74
2021/01/28 07:36:38;;;;;;;;;;;;;;;21.54;20.54;97164.25;4934914;29;582;-73
2021/01/28 07:39:32;;;;;;;;;;;;;;;21.51;20.53;97161.56;4962669;29;924;-74
2021/01/28 07:42:16;;;;;;;;;;;;;;;21.67;20.19;97164.16;4962384;29;498;-74
2021/01/28 07:45:20;;;;;;;;;;;;;;;21.77;20.21;97167.81;4962311;29;482;-74
2021/01/28 07:47:53;;;;;;;;;;;;;;;21.92;20.21;97165.97;4945484;29;1963;-74
2021/01/28 07:50:32;;;;;;;;;;;;;;;21.58;20.09;97164.09;4930530;29;1072;-74
2021/01/28 07:53:16;;;;;;;;;;;;;;;21.52;20.25;97163.13;4962194;29;1032;-74
2021/01/28 07:55:42;;;;;;;;;;;;;;;21.61;20.01;97166.03;4945473;29;1267;-73
2021/01/28 07:58:22;;;;;;;;;;;;;;;21.58;20.36;97172.59;4962156;29;615;-74
2021/01/28 08:00:51;;;;;;;;;;;;;;;21.55;20.26;97173.53;4962153;29;695;-74
2021/01/28 08:03:25;;;;;;;;;;;;;;;21.71;20.21;97170.47;4945529;29;942;-74
2021/01/28 08:05:52;;;;;;;;;;;;;;;21.79;19.95;97163.25;4913473;29;926;-74
2021/01/28 08:08:18;;;;;;;;;;;;;;;21.75;20.09;97165.44;4945270;29;1907;-74
2021/01/28 08:10:48;;;;;;;;;;;;;;;21.71;19.99;97164.81;4930249;29;1216;-74
2021/01/28 08:13:20;;;;;;;;;;;;;;;21.68;20.26;97165.72;4961986;29;603;-74
2021/01/28 08:15:46;;;;;;;;;;;;;;;21.93;20.03;97164.72;4962008;29;675;-74
2021/01/28 08:18:17;;;;;;;;;;;;;;;21.55;20.29;97156.53;4961568;29;951;-74
2021/01/28 08:20:42;;;;;;;;;;;;;;;21.66;20.08;97165.41;4961490;29;871;-74
2021/01/28 08:23:15;;;;;;;;;;;;;;;21.53;20.09;97167.53;4961778;29;907;-74
2021/01/28 08:25:49;;;;;;;;;;;;;;;21.76;20.02;97160.53;4961781;29;651;-73
2021/01/28 08:28:15;;;;;;;;;;;;;;;21.58;20.15;97156.41;4962046;29;1922;-74
2021/01/28 08:30:41;;;;;;;;;;;;;;;21.52;19.96;97174.47;4961668;29;665;-73
2021/01/28 08:33:06;;;;;;;;;;;;;;;21.49;20.14;97169.72;4961309;29;863;-74
2021/01/28 08:35:39;;;;;;;;;;;;;;;21.68;20.05;97176.25;4944015;29;961;-74
2021/01/28 08:38:25;;;;;;;;;;;;;;;21.75;19.76;97185.25;4945153;29;889;-74
2021/01/28 08:41:04;;;;;;;;;;;;;;;21.58;19.99;97183.94;4961022;29;2132;-74
2021/01/28 08:43:30;;;;;;;;;;;;;;;21.65;20.12;97189.28;4961506;29;680;-74
2021/01/28 08:46:19;;;;;;;;;;;;;;;21.54;20.16;97188.94;4961752;29;667;-74
2021/01/28 08:48:47;;;;;;;;;;;;;;;21.49;20.23;97198.03;4961222;29;1899;-74
2021/01/28 08:51:23;;;;;;;;;;;;;;;21.64;19.81;97199.03;4961178;29;846;-74
2021/01/28 08:53:55;;;;;;;;;;;;;;;21.58;19.83;97204.53;4944691;29;1121;-74
2021/01/28 08:56:22;;;;;;;;;;;;;;;21.64;20.04;97204.72;4944914;29;688;-73
2021/01/28 08:58:48;;;;;;;;;;;;;;;21.59;19.96;97202.47;4944951;29;651;-73
2021/01/28 09:01:14;;;;;;;;;;;;;;;21.64;19.93;97210.38;4944718;29;890;-75
2021/01/28 09:03:58;;;;;;;;;;;;;;;21.83;19.82;97211.25;4944304;29;894;-74
2021/01/28 09:06:23;;;;;;;;;;;;;;;21.62;19.77;97212.88;4960967;29;881;-74
2021/01/28 09:09:07;;;;;;;;;;;;;;;21.62;20.04;97212.88;4961258;29;1972;-74
2021/01/28 09:11:33;;;;;;;;;;;;;;;21.56;20.00;97214.75;4961254;29;675;-74
2021/01/28 09:14:17;;;;;;;;;;;;;;;21.55;20.40;97216.78;4961305;29;703;-75
2021/01/28 09:17:02;;;;;;;;;;;;;;;21.71;20.05;97214.94;4961248;29;639;-74
2021/01/28 09:19:28;;;;;;;;;;;;;;;21.64;20.20;97198.25;4944688;29;839;-74
2021/01/28 09:21:55;;;;;;;;;;;;;;;21.67;20.19;97198.13;4960973;29;966;-74
2021/01/28 09:24:40;;;;;;;;;;;;;;;21.56;20.15;97197.75;4961117;29;683;-74
2021/01/28 09:27:06;;;;;;;;;;;;;;;21.77;20.25;97199.75;4928181;29;1020;-74
2021/01/28 09:29:32;;;;;;;;;;;;;;;21.64;20.21;97198.25;4961029;29;1899;-75
2021/01/28 09:32:27;;;;;;;;;;;;;;;21.71;20.35;97193.13;4961247;29;652;-74
2021/01/28 09:35:14;;;;;;;;;;;;;;;21.50;20.50;97193.94;4940536;29;1094;-74
2021/01/28 09:37:44;;;;;;;;;;;;;;;21.10;20.89;97186.16;4960853;29;853;-74
2021/01/28 09:40:17;;;;;;;;;;;;;;;21.41;20.74;97185.41;4961032;29;684;-74
2021/01/28 09:42:43;;;;;;;;;;;;;;;21.65;20.56;97183.63;4961019;29;659;-74
2021/01/28 09:45:09;;;;;;;;;;;;;;;21.63;20.31;97188.97;4961018;29;589;-74
2021/01/28 09:47:35;;;;;;;;;;;;;;;21.67;20.27;97192.47;4962334;28;1989;-74
2021/01/28 09:50:01;;;;;;;;;;;;;;;21.71;20.45;97187.47;4964170;29;1014;-74
2021/01/28 09:52:28;;;;;;;;;;;;;;;21.88;20.05;97184.38;4964009;29;1020;-74
2021/01/28 09:55:00;;;;;;;;;;;;;;;21.78;20.38;97175.84;4964233;29;863;-74
2021/01/28 09:57:26;;;;;;;;;;;;;;;21.81;20.12;97186.25;4964366;29;599;-74
2021/01/28 09:59:51;;;;;;;;;;;;;;;21.75;20.27;97176.75;4947664;29;686;-74
2021/01/28 10:02:18;;;;;;;;;;;;;;;21.41;20.73;97174.09;4964266;29;667;-74
2021/01/28 10:04:44;;;;;;;;;;;;;;;20.99;21.07;97177.28;4963846;29;964;-74
2021/01/28 10:07:10;;;;;;;;;;;;;;;21.25;21.15;97175.88;4963966;29;935;-73
2021/01/28 10:09:35;;;;;;;;;;;;;;;21.37;21.06;97190.41;4964219;29;1906;-74
2021/01/28 10:12:00;;;;;;;;;;;;;;;21.53;20.57;97176.03;4964023;29;707;-74
2021/01/28 10:14:26;;;;;;;;;;;;;;;21.74;20.43;97175.19;4964016;29;663;-73
2021/01/28 10:16:51;;;;;;;;;;;;;;;21.66;20.31;97173.91;4963918;29;651;-73
2021/01/28 10:19:17;;;;;;;;;;;;;;;21.74;20.74;97180.06;4963607;29;1024;-73
2021/01/28 10:21:42;;;;;;;;;;;;;;;21.80;20.34;97167.66;4963576;29;824;-73
2021/01/28 10:24:08;;;;;;;;;;;;;;;21.94;20.20;97171.16;4947206;29;1000;-74
2021/01/28 10:26:33;;;;;;;;;;;;;;;21.79;20.31;97174.56;4963777;29;695;-74
2021/01/28 10:28:59;;;;;;;;;;;;;;;21.93;20.23;97163.94;4963722;29;1960;-74
2021/01/28 10:31:24;;;;;;;;;;;;;;;21.85;20.33;97163.41;4963652;29;592;-74
2021/01/28 10:33:51;;;;;;;;;;;;;;;21.68;20.53;97168.56;4963393;29;883;-74
2021/01/28 10:36:16;;;;;;;;;;;;;;;21.12;21.51;97163.84;4963384;29;847;-74
2021/01/28 10:38:42;;;;;;;;;;;;;;;21.50;21.07;97171.28;4963450;29;925;-74
2021/01/28 10:41:07;;;;;;;;;;;;;;;21.65;20.80;97169.47;4963614;29;715;-74
2021/01/28 10:43:33;;;;;;;;;;;;;;;21.56;21.08;97169.47;4931247;29;1260;-74
2021/01/28 10:45:59;;;;;;;;;;;;;;;21.58;20.88;97161.28;4963536;29;836;-73
2021/01/28 10:48:24;;;;;;;;;;;;;;;21.53;20.82;97171.16;4962958;29;1894;-73
2021/01/28 10:50:50;;;;;;;;;;;;;;;21.59;20.79;97160.00;4963200;29;840;-74
2021/01/28 10:53:15;;;;;;;;;;;;;;;21.63;21.08;97162.72;4963069;29;1085;-74
2021/01/28 10:55:41;;;;;;;;;;;;;;;21.86;20.65;97165.00;4963257;29;607;-74
2021/01/28 10:58:06;;;;;;;;;;;;;;;21.89;20.52;97157.63;4963257;28;735;-74
2021/01/28 11:00:32;;;;;;;;;;;;;;;21.77;20.57;97162.94;4962453;29;583;-73
2021/01/28 11:02:58;;;;;;;;;;;;;;;21.67;20.98;97166.97;4962764;29;997;-73
2021/01/28 11:05:24;;;;;;;;;;;;;;;21.41;20.98;97157.13;4962816;29;986;-74
2021/01/28 11:07:50;;;;;;;;;;;;;;;21.00;21.39;97168.31;4963216;29;1903;-73
2021/01/28 11:10:15;;;;;;;;;;;;;;;21.51;20.95;97172.91;4962990;29;643;-74
2021/01/28 11:12:41;;;;;;;;;;;;;;;21.57;20.79;97154.03;4914989;29;1234;-74
2021/01/28 11:15:07;;;;;;;;;;;;;;;21.58;21.11;97166.94;4962944;29;711;-74
2021/01/28 11:17:32;;;;;;;;;;;;;;;21.63;20.80;97169.16;4945516;29;1087;-74
2021/01/28 11:20:01;;;;;;;;;;;;;;;21.61;21.07;97166.03;4962502;29;868;-74
2021/01/28 11:22:26;;;;;;;;;;;;;;;21.61;20.91;97160.34;4946524;29;968;-74
2021/01/28 11:24:52;;;;;;;;;;;;;;;21.76;20.90;97163.38;4962662;29;711;-74
2021/01/28 11:27:17;;;;;;;;;;;;;;;21.70;20.91;97163.19;4962644;29;588;-74
2021/01/28 11:29:43;;;;;;;;;;;;;;;21.59;21.13;97163.63;4962182;29;1906;-73
2021/01/28 11:32:08;;;;;;;;;;;;;;;21.78;20.93;97158.84;4945203;29;1153;-74
2021/01/28 11:34:34;;;;;;;;;;;;;;;21.64;21.06;97165.06;4962100;29;1204;-74
2021/01/28 11:36:59;;;;;;;;;;;;;;;21.70;20.89;97171.69;4962300;29;1164;-75
2021/01/28 11:39:25;;;;;;;;;;;;;;;21.77;20.86;97162.94;4962329;29;1152;-74
2021/01/28 11:41:50;;;;;;;;;;;;;;;21.71;20.83;97164.81;4962366;29;1291;-74
2021/01/28 11:44:16;;;;;;;;;;;;;;;21.77;21.00;97162.16;4962426;29;659;-74
2021/01/28 11:46:41;;;;;;;;;;;;;;;21.38;21.22;97160.88;4961837;29;1153;-74
2021/01/28 11:49:07;;;;;;;;;;;;;;;21.22;21.65;97156.19;4961833;29;1976;-74
2021/01/28 11:51:32;;;;;;;;;;;;;;;21.36;21.58;97154.88;4962067;29;1287;-74
2021/01/28 11:53:58;;;;;;;;;;;;;;;21.43;21.44;97154.59;4961662;29;1220;-74
2021/01/28 11:56:23;;;;;;;;;;;;;;;21.51;21.25;97150.25;4961960;29;1050;-75
2021/01/28 11:58:48;;;;;;;;;;;;;;;21.66;21.11;97156.91;4939077;29;1217;-74
2021/01/28 12:01:14;;;;;;;;;;;;;;;21.70;21.26;97163.19;4951407;29;1257;-76
2021/01/28 12:03:40;;;;;;;;;;;;;;;21.76;21.01;97155.69;4951745;29;1312;-76
2021/01/28 12:06:05;;;;;;;;;;;;;;;21.82;20.89;97161.53;4953087;29;1264;-76
2021/01/28 12:08:31;;;;;;;;;;;;;;;22.04;20.51;97167.09;4950740;29;1915;-74
2021/01/28 12:10:56;;;;;;;;;;;;;;;21.90;20.96;97164.84;4935800;29;1248;-74
2021/01/28 12:13:22;;;;;;;;;;;;;;;21.82;21.03;97165.16;4952262;29;1343;-73
2021/01/28 12:15:47;;;;;;;;;;;;;;;21.83;20.85;97172.38;4950780;29;1208;-74
2021/01/28 12:18:12;;;;;;;;;;;;;;;21.55;21.15;97171.50;4952399;29;1307;-73
2021/01/28 12:20:38;;;;;;;;;;;;;;;21.29;21.66;97168.00;4951583;29;1205;-75
2021/01/28 12:23:04;;;;;;;;;;;;;;;21.44;21.32;97173.16;4951281;29;1240;-74
2021/01/28 12:25:30;;;;;;;;;;;;;;;21.54;21.50;97177.59;4952976;29;1319;-74
2021/01/28 12:27:55;;;;;;;;;;;;;;;21.60;21.24;97167.25;4935079;29;1977;-75
2021/01/28 12:30:21;;;;;;;;;;;;;;;21.73;21.24;97173.59;4961008;29;1121;-76
2021/01/28 12:32:47;;;;;;;;;;;;;;;21.84;21.06;97167.50;4960972;29;1350;-76
2021/01/28 12:35:13;;;;;;;;;;;;;;;21.72;20.95;97177.69;4958541;29;1074;-76
2021/01/28 12:37:38;;;;;;;;;;;;;;;21.51;21.56;97179.34;4961590;29;1132;-76
2021/01/28 12:40:07;;;;;;;;;;;;;;;21.77;21.31;97182.75;4913369;29;1264;-76
2021/01/28 12:42:33;;;;;;;;;;;;;;;21.75;21.01;97179.59;4958592;29;1077;-76
2021/01/28 12:44:58;;;;;;;;;;;;;;;21.58;21.29;97179.03;4912700;29;1130;-76
2021/01/28 12:47:24;;;;;;;;;;;;;;;21.21;21.97;97182.91;4944248;29;1231;-76
2021/01/28 12:49:49;;;;;;;;;;;;;;;21.49;21.38;97186.69;4960947;29;1907;-76
2021/01/28 12:52:15;;;;;;;;;;;;;;;21.63;21.24;97188.97;4961081;29;1172;-75
2021/01/28 12:54:40;;;;;;;;;;;;;;;21.53;21.24;97193.03;4941947;29;1160;-76
2021/01/28 12:57:06;;;;;;;;;;;;;;;21.54;21.28;97192.53;4941957;29;1283;-76
2021/01/28 12:59:31;;;;;;;;;;;;;;;21.59;21.63;97185.50;4941531;29;1181;-76
2021/01/28 13:01:57;;;;;;;;;;;;;;;21.63;21.23;97191.81;4941600;29;1207;-76
2021/01/28 13:04:22;;;;;;;;;;;;;;;21.54;21.33;97200.25;4941790;29;1332;-76
2021/01/28 13:06:48;;;;;;;;;;;;;;;21.82;21.07;97198.34;4941850;29;1204;-76
2021/01/28 13:09:13;;;;;;;;;;;;;;;21.67;21.20;97203.78;4942031;29;1977;-74
2021/01/28 13:11:39;;;;;;;;;;;;;;;21.78;21.36;97209.81;4941750;29;1181;-76
2021/01/28 13:14:04;;;;;;;;;;;;;;;21.64;21.30;97199.03;4941575;29;1177;-76
2021/01/28 13:16:30;;;;;;;;;;;;;;;21.57;21.32;97205.00;4941447;29;1200;-76
2021/01/28 13:18:55;;;;;;;;;;;;;;;21.75;21.31;97190.13;4941627;29;1129;-76
2021/01/28 13:21:23;;;;;;;;;;;;;;;21.79;21.24;97211.38;4941810;29;1184;-76
2021/01/28 13:23:49;;;;;;;;;;;;;;;21.36;21.52;97205.81;4944808;29;1097;-77
2021/01/28 13:26:14;;;;;;;;;;;;;;;21.29;21.66;97199.13;4945352;29;1181;-76
2021/01/28 13:28:40;;;;;;;;;;;;;;;21.30;21.97;97209.25;4944969;29;1871;-76
2021/01/28 13:31:05;;;;;;;;;;;;;;;21.53;21.30;97198.69;4944921;29;1251;-76